createdAt,value
2023-01-25T01:24:03.589Z,84.54
2023-01-25T01:26:33.228Z,84.42
2023-01-25T01:29:01.175Z,84.65
2023-01-25T01:31:29.493Z,84.78
2023-01-25T01:34:12.653Z,84.73
2023-01-25T01:36:41.087Z,84.73
2023-01-25T01:39:09.127Z,84.81
2023-01-25T01:41:37.221Z,84.59
2023-01-25T01:44:05.924Z,84.39
2023-01-25T01:46:37.638Z,84.18
2023-01-25T01:49:15.196Z,83.93
2023-01-25T01:51:50.142Z,84.03
2023-01-25T01:54:34.252Z,83.74
2023-01-25T01:57:06.691Z,83.67
2023-01-25T01:59:41.916Z,83.42
2023-01-25T02:02:09.783Z,83.24
2023-01-25T02:04:38.011Z,83.20
2023-01-25T02:07:17.895Z,83.13
2023-01-25T02:09:48.628Z,82.89
2023-01-25T02:12:16.685Z,82.74
2023-01-25T02:14:45.769Z,82.70
2023-01-25T02:17:14.779Z,82.62
2023-01-25T02:20:13.956Z,82.34
2023-01-25T02:22:57.131Z,81.98
2023-01-25T02:25:25.114Z,81.90
2023-01-25T02:27:59.030Z,81.95
2023-01-25T02:30:30.504Z,81.70
2023-01-25T02:32:58.471Z,81.52
2023-01-25T02:35:43.454Z,81.90
2023-01-25T02:38:16.187Z,81.77
2023-01-25T02:40:49.622Z,81.62
2023-01-25T02:43:21.180Z,81.58
2023-01-25T02:45:50.770Z,81.78
2023-01-25T02:48:18.706Z,81.96
2023-01-25T02:50:46.699Z,82.21
2023-01-25T02:53:14.643Z,82.26
2023-01-25T02:55:42.553Z,82.23
2023-01-25T02:58:10.394Z,81.88
2023-01-25T03:00:38.300Z,81.97
2023-01-25T03:03:06.451Z,82.00
2023-01-25T03:05:35.663Z,82.01
2023-01-25T03:08:03.970Z,82.26
2023-01-25T03:10:32.641Z,82.54
2023-01-25T03:13:00.759Z,83.04
2023-01-25T03:15:28.801Z,83.09
2023-01-25T03:17:57.641Z,83.08
2023-01-25T03:20:26.546Z,83.31
2023-01-25T03:22:55.246Z,83.01
2023-01-25T03:25:23.399Z,82.89
2023-01-25T03:27:58.161Z,82.84
2023-01-25T03:30:26.482Z,82.91
2023-01-25T03:32:54.784Z,83.01
2023-01-25T03:35:22.882Z,82.90
2023-01-25T03:37:50.847Z,82.65
2023-01-25T03:40:19.130Z,83.02
2023-01-25T03:42:50.548Z,82.82
2023-01-25T03:45:18.910Z,82.46
2023-01-25T03:47:47.058Z,82.40
2023-01-25T03:50:15.898Z,82.45
2023-01-25T03:52:59.896Z,82.58
2023-01-25T03:55:31.030Z,82.45
2023-01-25T03:57:59.239Z,82.17
2023-01-25T04:00:27.235Z,82.08
2023-01-25T04:02:57.516Z,82.59
2023-01-25T04:05:25.589Z,82.69
2023-01-25T04:07:54.111Z,82.79
2023-01-25T04:10:29.049Z,82.93
2023-01-25T04:12:57.128Z,82.62
2023-01-25T04:15:25.529Z,82.91
2023-01-25T04:17:56.430Z,82.92
2023-01-25T04:20:25.330Z,83.02
2023-01-25T04:22:53.865Z,83.54
2023-01-25T04:25:24.689Z,83.44
2023-01-25T04:27:54.318Z,83.50
2023-01-25T04:30:22.208Z,83.57
2023-01-25T04:32:50.390Z,83.85
2023-01-25T04:35:25.354Z,84.02
2023-01-25T04:37:55.195Z,84.05
2023-01-25T04:40:25.273Z,84.14
2023-01-25T04:42:53.370Z,84.21
2023-01-25T04:45:21.714Z,84.40
2023-01-25T04:47:50.067Z,84.50
2023-01-25T04:50:18.088Z,84.47
2023-01-25T04:52:46.520Z,84.54
2023-01-25T04:55:14.661Z,84.45
2023-01-25T04:57:43.810Z,84.42
2023-01-25T05:00:12.213Z,84.29
2023-01-25T05:02:40.299Z,84.13
2023-01-25T05:05:09.117Z,84.23
2023-01-25T05:07:37.743Z,84.31
2023-01-25T05:10:06.217Z,84.14
2023-01-25T05:12:35.761Z,84.26
2023-01-25T05:15:07.740Z,84.33
2023-01-25T05:17:36.555Z,84.47
2023-01-25T05:20:04.851Z,84.60
2023-01-25T05:22:33.060Z,84.44
2023-01-25T05:25:02.895Z,84.49
2023-01-25T05:27:31.133Z,84.43
2023-01-25T05:30:18.319Z,83.92
2023-01-25T05:32:54.361Z,83.79
2023-01-25T05:35:23.275Z,84.08
2023-01-25T05:37:59.763Z,83.88
2023-01-25T05:40:28.704Z,83.99
2023-01-25T05:42:59.785Z,84.16
2023-01-25T05:45:30.108Z,84.11
2023-01-25T05:47:58.948Z,84.30
2023-01-25T05:50:27.096Z,84.41
2023-01-25T05:53:15.626Z,84.51
2023-01-25T05:55:43.495Z,84.51
2023-01-25T05:58:15.048Z,84.50
2023-01-25T06:00:43.030Z,84.35
2023-01-25T06:03:13.508Z,84.40
2023-01-25T06:05:41.949Z,84.22
2023-01-25T06:08:09.991Z,84.32
2023-01-25T06:10:50.595Z,84.42
2023-01-25T06:13:19.031Z,83.92
2023-01-25T06:15:56.756Z,83.61
2023-01-25T06:18:43.422Z,84.01
2023-01-25T06:21:23.323Z,84.30
2023-01-25T06:23:51.242Z,84.28
2023-01-25T06:26:19.133Z,84.32
2023-01-25T06:28:47.858Z,84.09
2023-01-25T06:31:17.024Z,84.42
2023-01-25T06:33:49.846Z,84.35
2023-01-25T06:36:19.214Z,84.30
2023-01-25T06:38:53.244Z,84.28
2023-01-25T06:41:22.777Z,84.10
2023-01-25T06:43:51.363Z,83.99
2023-01-25T06:46:19.520Z,84.04
2023-01-25T06:48:47.815Z,83.91
2023-01-25T06:51:15.873Z,84.05
2023-01-25T06:53:45.378Z,83.83
2023-01-25T06:56:15.261Z,83.76
2023-01-25T06:58:43.508Z,83.69
2023-01-25T07:01:16.758Z,84.06
2023-01-25T07:03:44.796Z,84.16
2023-01-25T14:56:18.976Z,87.79
2023-01-25T14:58:50.811Z,87.66
2023-01-25T15:01:35.308Z,87.55
2023-01-25T15:04:02.057Z,87.47
2023-01-25T15:06:28.739Z,87.57
2023-01-25T15:08:58.067Z,87.36
2023-01-25T15:11:48.311Z,87.15
2023-01-25T15:14:17.903Z,86.99
2023-01-25T15:16:44.885Z,87.01
2023-01-25T15:19:30.124Z,86.03
2023-01-25T15:21:58.162Z,85.77
2023-01-25T15:24:24.960Z,85.54
2023-01-25T15:26:52.121Z,85.85
2023-01-25T15:29:20.741Z,86.28
2023-01-25T15:31:48.304Z,86.30
2023-01-25T15:34:20.317Z,86.53
2023-01-25T15:36:47.534Z,86.68
2023-01-25T15:39:15.592Z,86.52
2023-01-25T15:41:42.228Z,86.48
2023-01-25T15:44:09.091Z,86.26
2023-01-25T15:46:35.914Z,86.17
2023-01-25T15:49:04.837Z,86.27
2023-01-25T15:51:33.904Z,86.14
2023-01-25T15:54:01.955Z,85.92
2023-01-25T15:56:30.461Z,85.88
2023-01-25T15:59:00.689Z,85.54
2023-01-25T16:01:28.370Z,85.48
2023-01-25T16:04:13.526Z,85.45
2023-01-25T16:06:50.177Z,85.49
2023-01-25T16:09:28.821Z,85.67
2023-01-25T16:11:56.616Z,85.52
2023-01-25T16:14:28.201Z,85.51
2023-01-25T16:16:57.054Z,85.49
2023-01-25T16:19:23.705Z,85.59
2023-01-25T16:21:50.498Z,85.73
2023-01-25T16:24:17.492Z,85.61
2023-01-25T16:26:47.003Z,85.14
2023-01-25T16:29:14.298Z,85.26
2023-01-25T16:31:41.535Z,85.51
2023-01-25T16:34:08.055Z,85.47
2023-01-25T16:36:39.459Z,85.40
2023-01-25T16:39:21.179Z,85.40
2023-01-25T16:41:47.907Z,85.44
2023-01-25T16:44:16.483Z,85.34
2023-01-25T16:46:43.350Z,85.32
2023-01-25T16:49:21.078Z,85.13
2023-01-25T16:51:50.964Z,85.11
2023-01-25T16:54:19.194Z,85.37
2023-01-25T16:56:46.328Z,85.31
2023-01-25T16:59:12.859Z,85.32
2023-01-25T17:01:40.757Z,85.71
2023-01-25T17:04:07.963Z,85.59
2023-01-25T17:06:36.344Z,85.72
2023-01-25T17:09:20.579Z,85.59
2023-01-25T17:11:49.029Z,85.65
2023-01-25T17:14:16.613Z,85.29
2023-01-25T17:16:44.378Z,85.34
2023-01-25T17:19:12.518Z,85.16
2023-01-25T17:21:39.679Z,85.18
2023-01-25T17:24:06.370Z,85.31
2023-01-25T17:26:32.916Z,85.60
2023-01-25T17:29:01.574Z,85.57
2023-01-25T17:31:30.457Z,85.49
2023-01-25T17:33:59.559Z,85.69
2023-01-25T17:36:26.012Z,85.46
2023-01-25T17:38:53.278Z,85.47
2023-01-25T17:41:20.018Z,85.62
2023-01-25T17:43:54.073Z,85.58
2023-01-25T17:46:24.641Z,85.52
2023-01-25T17:48:54.377Z,85.48
2023-01-25T17:51:24.973Z,85.66
2023-01-25T17:53:52.700Z,85.36
2023-01-25T17:56:19.636Z,85.30
2023-01-25T17:58:46.077Z,85.06
2023-01-25T18:01:17.890Z,85.27
2023-01-25T18:03:45.068Z,85.26
2023-01-25T18:06:16.091Z,85.33
2023-01-25T18:08:44.193Z,85.39
2023-01-25T18:11:14.704Z,85.32
2023-01-25T18:13:51.354Z,85.30
2023-01-25T18:16:18.777Z,85.42
2023-01-25T18:18:45.392Z,85.60
2023-01-25T18:21:16.428Z,85.73
2023-01-25T18:23:45.656Z,85.69
2023-01-25T18:26:26.330Z,86.03
2023-01-25T18:28:54.555Z,85.97
2023-01-25T18:31:21.155Z,86.21
2023-01-25T18:33:47.752Z,86.22
2023-01-25T18:36:14.996Z,86.44
2023-01-25T18:38:41.748Z,86.46
2023-01-25T18:41:09.832Z,86.30
2023-01-25T18:43:36.401Z,86.44
2023-01-25T18:46:03.220Z,86.29
2023-01-25T18:48:30.271Z,86.29
2023-01-25T18:51:06.878Z,86.02
2023-01-25T18:53:35.834Z,86.10
2023-01-25T18:56:21.316Z,86.01
2023-01-25T18:58:50.384Z,86.02
2023-01-25T19:01:18.903Z,85.98
2023-01-25T19:03:45.856Z,86.26
2023-01-25T19:06:14.795Z,86.14
2023-01-25T19:08:43.401Z,86.23
2023-01-25T19:11:16.724Z,86.26
2023-01-25T19:13:43.470Z,85.93
2023-01-25T19:16:19.766Z,85.97
2023-01-25T19:18:49.078Z,85.91
2023-01-25T19:21:17.011Z,85.83
2023-01-25T19:23:43.586Z,85.79
2023-01-25T19:26:11.828Z,85.65
2023-01-25T19:28:39.992Z,85.50
2023-01-25T19:31:08.323Z,85.43
2023-01-25T19:33:35.183Z,85.34
2023-01-25T19:36:04.006Z,85.34
2023-01-25T19:38:31.003Z,85.39
2023-01-25T19:41:04.572Z,85.44
2023-01-25T19:43:31.215Z,85.26
2023-01-25T19:46:13.920Z,85.26
2023-01-25T19:48:42.561Z,85.21
2023-01-25T19:51:16.294Z,85.46
2023-01-25T19:53:47.960Z,85.25
2023-01-25T19:56:16.450Z,85.41
2023-01-25T19:58:44.068Z,85.25
2023-01-25T20:01:12.460Z,85.01
2023-01-25T20:03:39.131Z,85.01
2023-01-25T20:06:08.984Z,84.97
2023-01-25T20:08:38.238Z,84.84
2023-01-25T20:11:19.391Z,84.87
2023-01-25T20:13:46.867Z,84.86
2023-01-25T20:16:13.597Z,84.79
2023-01-25T20:18:40.885Z,84.66
2023-01-25T20:21:10.023Z,84.74
2023-01-25T20:23:37.958Z,84.66
2023-01-25T20:26:09.701Z,84.40
2023-01-25T20:28:36.455Z,84.07
2023-01-25T20:31:03.440Z,84.17
2023-01-25T20:33:31.295Z,84.38
2023-01-25T20:36:02.093Z,84.42
2023-01-25T20:38:32.484Z,84.56
2023-01-25T20:41:00.474Z,84.61
2023-01-25T20:43:28.833Z,84.66
2023-01-25T20:45:55.659Z,84.69
2023-01-25T20:48:22.882Z,84.67
2023-01-25T20:50:49.564Z,84.77
2023-01-25T20:53:16.156Z,84.85
2023-01-25T20:55:55.034Z,85.09
2023-01-25T20:58:24.280Z,85.12
2023-01-25T21:00:50.715Z,85.04
2023-01-25T21:03:17.306Z,84.95
2023-01-25T21:05:57.107Z,84.97
2023-01-25T21:08:24.110Z,85.05
2023-01-25T21:10:56.013Z,85.11
2023-01-25T21:13:23.062Z,84.86
2023-01-25T21:16:05.868Z,84.96
2023-01-25T21:18:43.258Z,84.99
2023-01-25T21:21:13.163Z,84.72
2023-01-25T21:23:44.058Z,84.82
2023-01-25T21:26:13.834Z,84.96
2023-01-25T21:28:41.252Z,84.72
2023-01-25T21:31:24.412Z,84.76
2023-01-25T21:33:51.112Z,85.05
2023-01-25T21:36:18.079Z,84.85
2023-01-25T21:38:45.774Z,84.78
2023-01-25T21:41:14.299Z,84.78
2023-01-25T21:43:59.258Z,84.95
2023-01-25T21:46:26.358Z,84.84
2023-01-25T21:49:12.250Z,84.85
2023-01-25T21:51:46.156Z,84.67
2023-01-25T21:54:14.323Z,84.79
2023-01-25T21:56:40.869Z,84.77
2023-01-25T21:59:07.483Z,84.87
2023-01-25T22:01:34.732Z,84.89
2023-01-25T22:04:01.249Z,84.88
2023-01-25T22:06:28.452Z,84.96
2023-01-25T22:08:54.982Z,84.74
2023-01-25T22:11:21.574Z,84.80
2023-01-25T22:13:48.378Z,84.83
2023-01-25T22:16:15.013Z,84.59
2023-01-25T22:18:42.204Z,84.74
2023-01-25T22:21:19.587Z,85.10
2023-01-25T22:23:46.152Z,84.92
2023-01-25T22:26:14.442Z,85.09
2023-01-25T22:28:45.639Z,85.27
2023-01-25T22:31:16.977Z,85.24
2023-01-25T22:33:43.984Z,85.12
2023-01-25T22:36:11.070Z,85.21
2023-01-25T22:38:38.776Z,85.17
2023-01-25T22:41:06.621Z,85.30
2023-01-25T22:43:34.384Z,85.19
2023-01-25T22:46:01.300Z,85.39
2023-01-25T22:48:27.956Z,85.34
2023-01-25T22:51:06.240Z,85.39
2023-01-25T22:53:32.947Z,85.37
2023-01-25T22:56:02.922Z,85.46
2023-01-25T22:58:29.516Z,85.59
2023-01-25T23:00:56.011Z,85.60
2023-01-25T23:03:22.565Z,85.75
2023-01-25T23:05:49.213Z,85.89
2023-01-25T23:08:15.720Z,85.90
2023-01-25T23:10:42.808Z,86.21
2023-01-25T23:13:09.500Z,86.20
2023-01-25T23:15:36.033Z,86.03
2023-01-25T23:18:21.242Z,86.08
2023-01-25T23:20:47.759Z,86.09
2023-01-25T23:23:14.289Z,86.05
2023-01-25T23:25:40.772Z,86.07
2023-01-25T23:28:07.305Z,85.95
2023-01-25T23:30:34.404Z,85.93
2023-01-25T23:33:01.162Z,86.00
2023-01-25T23:35:27.965Z,86.04
2023-01-25T23:37:54.489Z,85.94
2023-01-25T23:40:23.116Z,86.00
2023-01-25T23:42:49.591Z,85.91
2023-01-25T23:45:16.897Z,85.96
2023-01-25T23:47:43.624Z,85.94
2023-01-25T23:50:11.035Z,86.04
2023-01-25T23:52:37.654Z,85.82
2023-01-25T23:55:05.716Z,86.04
2023-01-25T23:57:32.475Z,86.29
2023-01-25T23:59:58.949Z,86.19
